Terminal Aerodrome Forecast
Issued by NWS

Current Version | Previous Version | Graphics & Text | Print | Product List | Glossary On
Versions: 1 2 3 4 5 6 7 8 9 10 11 12 13 14
000
FTUS41 KRNK 151136
TAFLWB
TAF
KLWB 151136Z 1512/1612 19006KT P6SM -SHRA SCT025 OVC050
     FM151500 26010KT 5SM -SHRA BR SCT025 OVC035
     FM151700 28013G26KT P6SM -SHRASN OVC012
     FM160000 30010G16KT P6SM BKN023
     FM160600 31005KT P6SM SCT023=

USA.gov is the U.S. government's official web portal to all federal, state and local government web resources and services.